createdAt,value
2019-04-14T00:00:44.754Z,2.00
2019-04-14T00:03:34.641Z,2.00
2019-04-14T00:06:05.458Z,1.90
2019-04-14T00:08:35.144Z,1.90
2019-04-14T00:11:06.073Z,1.90
2019-04-14T00:13:35.602Z,1.80
2019-04-14T00:16:05.375Z,1.80
2019-04-14T00:18:35.890Z,1.80
2019-04-14T00:21:06.488Z,1.80
2019-04-14T00:23:36.895Z,1.80
2019-04-14T00:26:25.398Z,1.90
2019-04-14T00:28:55.607Z,1.90
2019-04-14T00:31:26.165Z,1.90
2019-04-14T00:33:58.487Z,2.00
2019-04-14T00:36:37.991Z,2.00
2019-04-14T00:39:18.309Z,2.00
2019-04-14T00:42:02.110Z,2.00
2019-04-14T00:44:49.569Z,2.00
2019-04-14T00:47:22.297Z,2.00
2019-04-14T00:49:52.872Z,2.00
2019-04-14T00:52:23.248Z,1.90
2019-04-14T00:54:52.806Z,1.90
2019-04-14T00:57:22.426Z,1.80
2019-04-14T00:59:52.999Z,1.70
2019-04-14T01:02:23.223Z,1.70
2019-04-14T01:04:53.424Z,1.60
2019-04-14T01:07:24.045Z,1.50
2019-04-14T01:09:53.585Z,1.50
2019-04-14T01:12:23.517Z,1.40
2019-04-14T01:14:53.811Z,1.40
2019-04-14T01:17:24.376Z,1.30
2019-04-14T01:19:54.799Z,1.30
2019-04-14T01:22:24.882Z,1.30
2019-04-14T01:24:55.313Z,1.20
2019-04-14T01:27:25.643Z,1.20
2019-04-14T01:29:55.918Z,1.20
2019-04-14T01:32:26.121Z,1.10
2019-04-14T01:34:56.701Z,1.10
2019-04-14T01:37:26.918Z,1.10
2019-04-14T01:39:56.685Z,1.10
2019-04-14T01:42:26.766Z,1.00
2019-04-14T01:44:57.035Z,1.00
2019-04-14T01:47:27.027Z,0.90
2019-04-14T01:49:57.360Z,0.90
2019-04-14T01:52:48.164Z,0.90
2019-04-14T01:55:52.528Z,0.80
2019-04-14T01:58:27.230Z,0.80
2019-04-14T02:01:14.831Z,0.80
2019-04-14T02:03:45.468Z,0.80
2019-04-14T02:06:15.739Z,0.70
2019-04-14T02:08:45.858Z,0.70
2019-04-14T02:11:15.840Z,0.60
2019-04-14T02:13:46.361Z,0.60
2019-04-14T02:16:26.566Z,0.60
2019-04-14T02:18:47.120Z,0.60
2019-04-14T02:21:17.874Z,0.60
2019-04-14T02:23:47.533Z,0.50
2019-04-14T02:26:17.666Z,0.50
2019-04-14T02:28:48.212Z,0.50
2019-04-14T02:31:35.667Z,0.50
2019-04-14T02:34:19.237Z,0.40
2019-04-14T02:36:54.075Z,0.40
2019-04-14T02:39:21.088Z,0.40
2019-04-14T02:44:22.959Z,0.40
2019-04-14T02:49:18.804Z,0.40
2019-04-14T02:51:49.659Z,0.30
2019-04-14T02:54:36.988Z,0.30
2019-04-14T02:56:52.855Z,0.30
2019-04-14T02:59:19.740Z,0.20
2019-04-14T03:02:18.109Z,0.20
2019-04-14T03:04:26.108Z,0.10
2019-04-14T03:07:02.605Z,0.10
2019-04-14T03:09:37.967Z,0.10
2019-04-14T03:12:03.022Z,0.00
2019-04-14T03:17:24.231Z,0.00
2019-04-14T03:20:13.983Z,-0.10
2019-04-14T03:25:26.567Z,-0.10
2019-04-14T03:28:27.852Z,-0.10
2019-04-14T03:38:53.176Z,-0.20
2019-04-14T03:41:08.869Z,-0.30
2019-04-14T03:46:11.522Z,-0.30
2019-04-14T03:51:13.733Z,-0.40
2019-04-14T03:53:37.665Z,-0.40
2019-04-14T03:56:21.643Z,-0.40
2019-04-14T03:58:51.576Z,-0.40
2019-04-14T04:01:21.579Z,-0.40
2019-04-14T04:03:52.093Z,-0.40
2019-04-14T04:06:22.452Z,-0.40
2019-04-14T04:08:53.084Z,-0.40
2019-04-14T04:11:23.664Z,-0.40
2019-04-14T04:13:54.194Z,-0.40
2019-04-14T04:16:48.445Z,-0.50
2019-04-14T04:19:27.189Z,-0.50
2019-04-14T04:22:15.162Z,-0.50
2019-04-14T04:24:54.025Z,-0.50
2019-04-14T04:27:42.566Z,-0.50
2019-04-14T04:30:16.519Z,-0.60
2019-04-14T04:33:08.685Z,-0.60
2019-04-14T04:35:42.031Z,-0.60
2019-04-14T04:38:18.783Z,-0.60
2019-04-14T04:40:48.569Z,-0.60
2019-04-14T04:43:18.929Z,-0.70
2019-04-14T04:45:49.454Z,-0.70
2019-04-14T04:48:19.653Z,-0.70
2019-04-14T04:50:49.898Z,-0.70
2019-04-14T04:53:20.177Z,-0.70
2019-04-14T04:55:50.365Z,-0.70
2019-04-14T04:58:19.872Z,-0.80
2019-04-14T05:00:52.245Z,-0.70
2019-04-14T05:03:21.116Z,-0.80
2019-04-14T05:06:29.095Z,-0.80
2019-04-14T05:09:07.746Z,-0.80
2019-04-14T05:11:42.747Z,-0.70
2019-04-14T05:14:17.312Z,-0.60
2019-04-14T05:16:46.761Z,-0.60
2019-04-14T05:19:23.744Z,-0.50
2019-04-14T05:21:47.426Z,-0.40
2019-04-14T05:24:17.809Z,-0.30
2019-04-14T05:26:48.457Z,-0.20
2019-04-14T05:29:18.895Z,-0.10
2019-04-14T05:31:49.068Z,-0.10
2019-04-14T05:34:19.419Z,0.00
2019-04-14T05:36:49.937Z,0.10
2019-04-14T05:39:19.980Z,0.30
2019-04-14T05:42:03.355Z,0.30
2019-04-14T05:44:20.788Z,0.40
2019-04-14T05:46:51.300Z,0.60
2019-04-14T05:49:31.523Z,0.70
2019-04-14T05:51:52.470Z,0.90
2019-04-14T05:54:23.054Z,1.10
2019-04-14T05:56:53.659Z,1.20
2019-04-14T05:59:24.170Z,1.30
2019-04-14T06:01:54.523Z,1.50
2019-04-14T06:04:24.356Z,1.60
2019-04-14T06:06:53.842Z,1.70
2019-04-14T06:09:23.103Z,1.90
2019-04-14T06:11:52.421Z,2.10
2019-04-14T06:14:21.930Z,2.20
2019-04-14T06:16:51.256Z,2.40
2019-04-14T06:19:20.755Z,2.60
2019-04-14T06:21:50.040Z,2.80
2019-04-14T06:24:19.429Z,3.00
2019-04-14T06:26:48.747Z,3.10
2019-04-14T06:29:17.968Z,3.30
2019-04-14T06:32:09.198Z,3.50
2019-04-14T06:34:45.699Z,3.70
2019-04-14T06:37:25.293Z,4.00
2019-04-14T06:39:54.827Z,4.30
2019-04-14T06:42:24.413Z,4.40
2019-04-14T06:44:53.810Z,4.60
2019-04-14T06:47:23.299Z,4.90
2019-04-14T06:49:52.647Z,4.80
2019-04-14T06:52:22.311Z,4.60
2019-04-14T06:54:51.663Z,4.70
2019-04-14T06:57:20.987Z,4.90
2019-04-14T06:59:50.288Z,5.30
2019-04-14T07:02:19.757Z,5.80
2019-04-14T07:04:49.076Z,6.10
2019-04-14T07:07:18.397Z,6.50
2019-04-14T07:09:47.667Z,6.40
2019-04-14T07:12:17.174Z,5.70
2019-04-14T07:14:46.750Z,5.60
2019-04-14T07:17:16.160Z,5.50
2019-04-14T07:19:45.352Z,5.20
2019-04-14T07:22:14.754Z,4.90
2019-04-14T07:24:44.078Z,5.00
2019-04-14T07:27:13.625Z,4.90
2019-04-14T07:29:51.297Z,5.10
2019-04-14T07:32:45.851Z,5.30
2019-04-14T07:35:46.398Z,5.30
2019-04-14T07:38:44.354Z,5.40
2019-04-14T07:41:32.662Z,5.40
2019-04-14T07:44:15.057Z,5.60
2019-04-14T07:46:51.054Z,6.00
2019-04-14T07:49:42.103Z,6.20
2019-04-14T07:52:39.525Z,6.40
2019-04-14T07:55:17.055Z,6.60
2019-04-14T07:58:02.225Z,6.90
2019-04-14T08:00:42.281Z,7.00
2019-04-14T08:03:24.309Z,7.30
2019-04-14T08:05:53.675Z,7.60
2019-04-14T08:08:22.929Z,7.90
2019-04-14T08:10:52.308Z,7.90
2019-04-14T08:13:21.659Z,8.00
2019-04-14T08:15:50.895Z,8.30
2019-04-14T08:18:20.299Z,8.60
2019-04-14T08:20:49.647Z,9.00
2019-04-14T08:23:19.054Z,9.00
2019-04-14T08:25:48.432Z,9.00
2019-04-14T08:28:17.805Z,9.00
2019-04-14T08:30:47.299Z,9.10
2019-04-14T08:33:16.563Z,9.30
2019-04-14T08:35:45.858Z,9.00
2019-04-14T08:38:15.283Z,9.00
2019-04-14T08:40:44.643Z,9.20
2019-04-14T08:43:26.729Z,9.40
2019-04-14T08:46:15.163Z,9.50
2019-04-14T08:48:50.291Z,9.50
2019-04-14T08:51:23.343Z,9.50
2019-04-14T08:54:03.183Z,9.80
2019-04-14T08:57:03.859Z,9.60
2019-04-14T08:59:45.110Z,10.10
2019-04-14T09:02:22.189Z,10.50
2019-04-14T09:05:13.538Z,10.70
2019-04-14T09:07:52.199Z,10.80
2019-04-14T09:10:27.579Z,11.00
2019-04-14T09:12:58.058Z,11.10
2019-04-14T09:15:27.591Z,11.10
2019-04-14T09:17:56.919Z,11.30
2019-04-14T09:20:26.314Z,11.20
2019-04-14T09:22:55.636Z,11.40
2019-04-14T09:25:25.081Z,11.40
2019-04-14T09:27:54.439Z,11.30
2019-04-14T09:30:23.778Z,11.80
2019-04-14T09:32:53.229Z,12.00
2019-04-14T09:35:22.664Z,11.60
2019-04-14T09:37:51.893Z,11.50
2019-04-14T09:40:21.359Z,11.80
2019-04-14T09:42:50.663Z,11.80
2019-04-14T09:45:19.969Z,12.30
2019-04-14T09:47:49.323Z,12.30
2019-04-14T09:50:18.679Z,12.30
2019-04-14T09:52:48.081Z,12.50
2019-04-14T09:55:17.386Z,12.40
2019-04-14T09:57:46.745Z,12.50
2019-04-14T10:00:16.728Z,12.70
2019-04-14T10:02:46.056Z,12.80
2019-04-14T10:05:15.990Z,12.90
2019-04-14T10:07:45.325Z,12.80
2019-04-14T10:10:14.766Z,12.50
2019-04-14T10:12:44.137Z,12.40
2019-04-14T10:15:13.596Z,12.40
2019-04-14T10:17:43.142Z,12.30
2019-04-14T10:20:12.499Z,12.00
2019-04-14T10:22:41.898Z,12.20
2019-04-14T10:25:11.229Z,12.30
2019-04-14T10:27:40.595Z,12.40
2019-04-14T10:30:10.065Z,12.80
2019-04-14T10:32:39.435Z,12.70
2019-04-14T10:35:08.696Z,12.70
2019-04-14T10:37:38.081Z,12.70
2019-04-14T10:40:07.480Z,12.40
2019-04-14T10:42:36.766Z,12.30
2019-04-14T10:45:06.278Z,12.10
2019-04-14T10:47:35.629Z,11.90
2019-04-14T10:50:05.521Z,11.90
2019-04-14T10:52:34.806Z,12.40
2019-04-14T10:55:04.449Z,12.30
2019-04-14T10:57:33.845Z,12.30
2019-04-14T11:00:03.835Z,12.10
2019-04-14T11:02:33.941Z,11.70
2019-04-14T11:05:03.405Z,11.40
2019-04-14T11:07:32.849Z,11.10
2019-04-14T11:10:02.167Z,10.90
2019-04-14T11:12:31.570Z,10.90
2019-04-14T11:15:00.941Z,10.90
2019-04-14T11:17:30.198Z,10.80
2019-04-14T11:19:59.611Z,10.80
2019-04-14T11:22:28.966Z,10.50
2019-04-14T11:24:58.240Z,10.40
2019-04-14T11:27:27.681Z,10.30
2019-04-14T11:29:57.007Z,10.20
2019-04-14T11:32:45.362Z,10.20
2019-04-14T11:35:22.027Z,10.40
2019-04-14T11:38:06.666Z,10.40
2019-04-14T11:40:41.222Z,10.50
2019-04-14T11:43:10.443Z,10.40
2019-04-14T11:45:39.865Z,10.30
2019-04-14T11:48:09.186Z,10.20
2019-04-14T11:50:38.464Z,10.10
2019-04-14T11:53:07.857Z,9.90
2019-04-14T11:55:37.301Z,10.00
2019-04-14T11:58:06.621Z,9.80
2019-04-14T12:00:57.992Z,9.80
2019-04-14T12:03:46.302Z,9.60
2019-04-14T12:06:40.803Z,9.50
2019-04-14T12:09:40.903Z,9.40
2019-04-14T12:12:10.968Z,9.40
2019-04-14T12:14:40.319Z,9.30
2019-04-14T12:17:09.675Z,9.30
2019-04-14T12:19:38.983Z,9.30
2019-04-14T12:22:08.887Z,9.20
2019-04-14T12:24:38.683Z,9.30
2019-04-14T12:27:08.004Z,9.40
2019-04-14T12:29:37.340Z,9.50
2019-04-14T12:32:07.073Z,9.50
2019-04-14T12:34:36.410Z,9.60
2019-04-14T12:37:06.282Z,9.60
2019-04-14T12:39:35.639Z,9.40
2019-04-14T12:42:29.196Z,9.30
2019-04-14T12:45:16.389Z,9.20
2019-04-14T12:48:19.769Z,9.20
2019-04-14T12:51:07.028Z,9.20
2019-04-14T12:53:36.426Z,9.20
2019-04-14T12:56:05.763Z,9.10
2019-04-14T12:58:49.500Z,9.00
2019-04-14T13:01:19.375Z,9.10
2019-04-14T13:03:48.839Z,9.10
2019-04-14T13:06:18.099Z,9.00
2019-04-14T13:08:47.519Z,9.00
2019-04-14T13:11:16.909Z,9.00
2019-04-14T13:13:46.325Z,8.90
2019-04-14T13:16:15.812Z,8.80
2019-04-14T13:18:45.412Z,8.70
2019-04-14T13:21:14.800Z,8.70
2019-04-14T13:23:44.238Z,8.70
2019-04-14T13:26:13.527Z,8.60
2019-04-14T13:28:42.852Z,8.60
2019-04-14T13:31:12.271Z,8.60
2019-04-14T13:33:41.602Z,8.60
2019-04-14T13:36:10.982Z,8.70
2019-04-14T13:38:40.307Z,8.70
2019-04-14T13:41:09.593Z,8.70
2019-04-14T13:43:39.069Z,8.60
2019-04-14T13:46:08.483Z,8.60
2019-04-14T13:48:37.882Z,8.60
2019-04-14T13:51:07.247Z,8.60
2019-04-14T13:53:39.751Z,8.60
2019-04-14T13:56:09.033Z,8.60
2019-04-14T13:58:40.879Z,8.60
2019-04-14T14:01:10.307Z,8.70
2019-04-14T14:03:39.679Z,8.70
2019-04-14T14:06:08.961Z,8.70
2019-04-14T14:08:38.304Z,8.70
2019-04-14T14:11:17.144Z,8.80
2019-04-14T14:13:52.080Z,8.80
2019-04-14T14:16:38.075Z,8.70
2019-04-14T14:19:41.275Z,8.70
2019-04-14T14:22:29.597Z,8.70
2019-04-14T14:25:21.003Z,8.80
2019-04-14T14:27:53.449Z,8.70
2019-04-14T14:30:22.914Z,8.70
2019-04-14T14:32:52.289Z,8.70
2019-04-14T14:35:21.560Z,8.70
2019-04-14T14:37:51.125Z,8.70
2019-04-14T14:40:20.438Z,8.60
2019-04-14T14:42:49.726Z,8.50
2019-04-14T14:45:36.653Z,8.50
2019-04-14T14:48:17.324Z,8.60
2019-04-14T14:50:51.190Z,8.70
2019-04-14T14:53:22.233Z,8.60
2019-04-14T14:55:51.666Z,8.50
2019-04-14T14:58:20.966Z,8.40
2019-04-14T15:00:50.601Z,8.40
2019-04-14T15:03:19.895Z,8.30
2019-04-14T15:05:49.349Z,8.40
2019-04-14T15:08:18.679Z,8.40
2019-04-14T15:10:48.077Z,8.40
2019-04-14T15:13:17.397Z,8.40
2019-04-14T15:15:46.812Z,8.40
2019-04-14T15:18:16.202Z,8.50
2019-04-14T15:20:45.605Z,8.60
2019-04-14T15:23:24.879Z,8.40
2019-04-14T15:25:45.933Z,8.20
2019-04-14T15:28:15.773Z,8.00
2019-04-14T15:30:45.228Z,7.80
2019-04-14T15:33:14.682Z,7.70
2019-04-14T15:35:43.984Z,7.40
2019-04-14T15:38:13.489Z,7.30
2019-04-14T15:40:42.844Z,7.10
2019-04-14T15:43:12.249Z,7.10
2019-04-14T15:45:41.694Z,7.00
2019-04-14T15:48:10.945Z,7.10
2019-04-14T15:50:40.277Z,7.00
2019-04-14T15:53:09.639Z,6.90
2019-04-14T15:55:38.960Z,6.80
2019-04-14T15:58:27.226Z,6.70
2019-04-14T16:01:24.615Z,6.70
2019-04-14T16:04:11.665Z,6.60
2019-04-14T16:07:06.084Z,6.50
2019-04-14T16:09:47.835Z,6.50
2019-04-14T16:12:35.734Z,6.50
2019-04-14T16:15:16.276Z,6.50
2019-04-14T16:18:10.808Z,6.60
2019-04-14T16:20:42.185Z,6.60
2019-04-14T16:23:11.647Z,6.60
2019-04-14T16:25:58.453Z,6.50
2019-04-14T16:28:46.325Z,6.40
2019-04-14T16:31:33.273Z,6.30
2019-04-14T16:34:21.689Z,6.30
2019-04-14T16:36:51.408Z,6.20
2019-04-14T16:39:21.771Z,6.10
2019-04-14T16:41:51.453Z,6.10
2019-04-14T16:44:28.229Z,6.10
2019-04-14T16:46:57.573Z,6.00
2019-04-14T16:49:27.031Z,6.00
2019-04-14T16:52:02.205Z,6.10
2019-04-14T16:54:50.609Z,6.10
2019-04-14T16:57:48.268Z,6.10
2019-04-14T17:00:24.790Z,6.00
2019-04-14T17:02:54.193Z,6.00
2019-04-14T17:05:23.585Z,6.00
2019-04-14T17:07:53.652Z,6.00
2019-04-14T17:10:23.171Z,5.90
2019-04-14T17:12:52.404Z,5.90
2019-04-14T17:15:39.947Z,5.90
2019-04-14T17:18:15.889Z,5.90
2019-04-14T17:21:07.289Z,6.00
2019-04-14T17:23:43.989Z,5.90
2019-04-14T17:26:29.545Z,5.90
2019-04-14T17:29:06.899Z,5.90
2019-04-14T17:31:58.025Z,5.80
2019-04-14T17:34:36.826Z,5.80
2019-04-14T17:37:24.070Z,5.80
2019-04-14T17:40:01.748Z,5.80
2019-04-14T17:42:37.127Z,5.70
2019-04-14T17:45:31.296Z,5.70
2019-04-14T17:48:29.147Z,5.70
2019-04-14T17:51:12.649Z,5.60
2019-04-14T17:53:53.173Z,5.60
2019-04-14T17:56:26.733Z,5.60
2019-04-14T17:59:19.044Z,5.50
2019-04-14T18:01:59.208Z,5.50
2019-04-14T18:04:35.257Z,5.50
2019-04-14T18:07:23.589Z,5.50
2019-04-14T18:10:09.053Z,5.50
2019-04-14T18:13:00.623Z,5.50
2019-04-14T18:15:39.250Z,5.50
2019-04-14T18:18:32.241Z,5.50
2019-04-14T18:21:04.585Z,5.50
2019-04-14T18:23:33.853Z,5.50
2019-04-14T18:26:03.199Z,5.40
2019-04-14T18:28:54.418Z,5.40
2019-04-14T18:31:37.121Z,5.40
2019-04-14T18:34:31.441Z,5.40
2019-04-14T18:37:14.841Z,5.40
2019-04-14T18:40:01.946Z,5.40
2019-04-14T18:42:36.116Z,5.40
2019-04-14T18:45:28.381Z,5.40
2019-04-14T18:48:09.688Z,5.40
2019-04-14T18:50:58.252Z,5.40
2019-04-14T18:53:34.436Z,5.40
2019-04-14T18:56:15.233Z,5.40
2019-04-14T18:59:02.056Z,5.40
2019-04-14T19:01:37.409Z,5.40
2019-04-14T19:04:06.769Z,5.40
2019-04-14T19:06:35.999Z,5.40
2019-04-14T19:09:07.220Z,5.40
2019-04-14T19:11:50.945Z,5.40
2019-04-14T19:14:28.970Z,5.40
2019-04-14T19:17:02.641Z,5.40
2019-04-14T19:19:33.001Z,5.40
2019-04-14T19:22:02.390Z,5.40
2019-04-14T19:24:31.693Z,5.30
2019-04-14T19:27:03.756Z,5.30
2019-04-14T19:29:33.117Z,5.30
2019-04-14T19:32:02.521Z,5.30
2019-04-14T19:34:31.841Z,5.40
2019-04-14T19:37:04.173Z,5.30
2019-04-14T19:39:33.793Z,5.40
2019-04-14T19:42:03.322Z,5.30
2019-04-14T19:44:32.580Z,5.30
2019-04-14T19:47:03.009Z,5.40
2019-04-14T19:49:32.347Z,5.30
2019-04-14T19:52:01.659Z,5.30
2019-04-14T19:54:30.938Z,5.40
2019-04-14T19:57:01.029Z,5.40
2019-04-14T19:59:30.297Z,5.40
2019-04-14T20:01:59.777Z,5.40
2019-04-14T20:04:29.238Z,5.40
2019-04-14T20:06:58.661Z,5.40
2019-04-14T20:09:30.689Z,5.40
2019-04-14T20:11:59.061Z,5.40
2019-04-14T20:14:28.309Z,5.40
2019-04-14T20:17:19.716Z,5.40
2019-04-14T20:20:00.550Z,5.40
2019-04-14T20:22:47.716Z,5.40
2019-04-14T20:25:36.033Z,5.40
2019-04-14T20:28:27.731Z,5.40
2019-04-14T20:31:04.738Z,5.40
2019-04-14T20:33:34.026Z,5.40
2019-04-14T20:36:05.330Z,5.40
2019-04-14T20:38:34.569Z,5.40
2019-04-14T20:41:04.051Z,5.40
2019-04-14T20:43:33.495Z,5.40
2019-04-14T20:46:02.783Z,5.40
2019-04-14T20:48:32.157Z,5.40
2019-04-14T20:51:01.526Z,5.40
2019-04-14T20:53:30.862Z,5.40
2019-04-14T20:56:00.319Z,5.40
2019-04-14T20:58:29.937Z,5.40
2019-04-14T21:00:59.634Z,5.40
2019-04-14T21:03:38.310Z,5.40
2019-04-14T21:06:27.723Z,5.40
2019-04-14T21:09:12.191Z,5.40
2019-04-14T21:12:03.655Z,5.40
2019-04-14T21:14:42.647Z,5.40
2019-04-14T21:17:26.913Z,5.40
2019-04-14T21:20:01.305Z,5.40
2019-04-14T21:22:40.775Z,5.40
2019-04-14T21:25:15.259Z,5.40
2019-04-14T21:28:06.522Z,5.40
2019-04-14T21:31:00.161Z,5.40
2019-04-14T21:34:03.777Z,5.40
2019-04-14T21:36:46.612Z,5.40
2019-04-14T21:39:28.916Z,5.40
2019-04-14T21:41:58.451Z,5.40
2019-04-14T21:44:27.874Z,5.40
2019-04-14T21:46:57.439Z,5.40
2019-04-14T21:49:26.958Z,5.40
2019-04-14T21:52:06.661Z,5.40
2019-04-14T21:54:35.899Z,5.40
2019-04-14T21:57:27.610Z,5.40
2019-04-14T22:00:14.368Z,5.40
2019-04-14T22:03:01.178Z,5.40
2019-04-14T22:05:41.161Z,5.50
2019-04-14T22:08:13.939Z,5.50
2019-04-14T22:10:49.891Z,5.50
2019-04-14T22:13:19.137Z,5.50
2019-04-14T22:15:48.503Z,5.50
2019-04-14T22:18:18.224Z,5.50
2019-04-14T22:20:47.627Z,5.50
2019-04-14T22:23:16.962Z,5.50
2019-04-14T22:25:46.253Z,5.50
2019-04-14T22:28:15.582Z,5.50
2019-04-14T22:30:44.926Z,5.50
2019-04-14T22:33:15.792Z,5.50
2019-04-14T22:35:45.182Z,5.50
2019-04-14T22:38:14.480Z,5.50
2019-04-14T22:40:43.855Z,5.50
2019-04-14T22:43:13.417Z,5.50
2019-04-14T22:45:42.735Z,5.50
2019-04-14T22:48:12.074Z,5.50
2019-04-14T22:50:41.325Z,5.50
2019-04-14T22:53:10.559Z,5.50
2019-04-14T22:55:39.948Z,5.50
2019-04-14T22:58:09.123Z,5.60
2019-04-14T23:01:06.831Z,5.60
2019-04-14T23:03:58.191Z,5.50
2019-04-14T23:06:38.478Z,5.50
2019-04-14T23:09:26.740Z,5.50
2019-04-14T23:12:05.618Z,5.50
2019-04-14T23:15:11.813Z,5.50
2019-04-14T23:17:45.632Z,5.50
2019-04-14T23:20:34.155Z,5.60
2019-04-14T23:23:21.136Z,5.50
2019-04-14T23:25:50.497Z,5.50
2019-04-14T23:28:19.754Z,5.50
2019-04-14T23:30:49.091Z,5.50
2019-04-14T23:33:18.480Z,5.50
2019-04-14T23:35:47.727Z,5.50
2019-04-14T23:38:17.180Z,5.50
2019-04-14T23:40:46.489Z,5.50
2019-04-14T23:43:15.930Z,5.50
2019-04-14T23:45:45.308Z,5.50
2019-04-14T23:48:14.561Z,5.50
2019-04-14T23:50:43.859Z,5.50
2019-04-14T23:53:13.171Z,5.50
2019-04-14T23:55:42.421Z,5.50
2019-04-14T23:58:13.066Z,5.50
